Latest Weather Observations for Albury

IDV60801

Issued at 6:31 pm EST Monday 31 August 2015 (issued every 30 minutes, with the page automatically refreshed every 10 minutes)

About weather observations | Map of weather stations | Latest weather observations for VIC | Other Formats
Station Details ID: 072160 Name: ALBURY AIRPORT AWS Lat: -36.07 Lon: 146.95 Height: 163.5 m
Data from the previous 72 hours. | See also: Recent months at Albury
Date/Time
EST
Temp
°C
App
Temp
°C
Dew
Point
Rel
Hum
%
Delta-T
°C
Wind Press
QNH
hPa
Press
MSL
hPa
Rain
since 9 am
mm
Dir
 
Spd
km/h
Gust
km/h
Spd
kts
Gust
kts
31/06:30pm 10.1 6.3 4.0 66 2.7 WNW 13 17 7 9 1016.9 1017.1 0.0
31/06:00pm 10.9 6.5 4.8 66 2.8 W 17 20 9 11 1016.7 1016.9 0.0
31/05:30pm 11.8 7.5 5.2 64 3.1 W 17 20 9 11 1016.5 1016.7 0.0
31/05:00pm 13.1 9.1 5.0 58 3.8 WNW 15 19 8 10 1016.3 1016.5 0.0
31/04:30pm 13.7 9.6 4.6 54 4.2 WNW 15 24 8 13 1016.3 1016.5 0.0
31/04:00pm 14.2 10.1 4.5 52 4.5 W 15 22 8 12 1016.3 1016.5 0.0
31/03:30pm 14.6 11.0 4.9 52 4.6 W 13 19 7 10 1016.3 1016.5 0.0
31/03:00pm 14.8 10.9 5.3 53 4.5 NW 15 24 8 13 1016.6 1016.8 0.0
31/02:30pm 14.6 11.3 4.6 51 4.7 NW 11 24 6 13 1016.8 1017.0 0.0
31/02:00pm 14.2 10.0 3.9 50 4.7 W 15 22 8 12 1017.0 1017.2 0.0
31/01:30pm 14.5 11.2 4.5 51 4.7 SW 11 20 6 11 1017.1 1017.3 0.0
31/01:00pm 14.5 10.9 5.0 53 4.5 WSW 13 24 7 13 1017.5 1017.7 0.0
31/12:30pm 14.0 10.7 4.6 53 4.4 WNW 11 19 6 10 1018.0 1018.2 0.0
31/12:00pm 13.6 11.1 3.9 52 4.4 NNE 6 9 3 5 1018.4 1018.6 0.0
31/11:30am 12.9 11.1 3.6 53 4.2 NE 2 9 1 5 1018.9 1019.2 0.0
31/11:00am 12.2 10.4 3.4 55 3.9 NE 2 6 1 3 1019.2 1019.5 0.0
31/10:30am 11.2 8.9 4.7 64 3.0 ENE 6 9 3 5 1019.4 1019.7 0.0
31/10:00am 10.1 8.0 3.8 65 2.8 SE 4 9 2 5 1019.6 1019.9 0.0
31/09:30am 8.6 6.4 3.4 70 2.3 SE 4 9 2 5 1019.8 1020.1 0.0
31/09:00am 8.3 6.9 3.6 72 2.0 CALM 0 0 0 0 1019.8 1020.1 0.0
31/08:30am 6.9 5.5 3.5 79 1.5 CALM 0 0 0 0 1019.8 1020.1 0.0
31/08:00am 5.7 4.3 3.5 86 0.9 CALM 0 0 0 0 1019.7 1020.0 0.0
31/07:30am 4.2 2.8 3.6 96 0.3 CALM 0 0 0 0 1019.5 1019.8 0.0
31/07:00am 2.5 0.8 1.9 96 0.2 CALM 0 0 0 0 1019.3 1019.6 0.0
31/06:30am 2.2 0.0 1.3 94 0.3 NNW 2 6 1 3 1019.1 1019.4 0.0
31/06:00am 3.1 1.5 2.5 96 0.2 CALM 0 0 0 0 1019.1 1019.4 0.0
31/05:30am 2.9 1.3 2.5 97 0.2 CALM 0 0 0 0 1019.0 1019.3 0.0
31/05:00am 2.4 0.7 1.8 96 0.2 CALM 0 0 0 0 1019.0 1019.3 0.0
31/04:30am 3.0 1.4 2.6 97 0.2 CALM 0 0 0 0 1018.9 1019.2 0.0
31/04:00am 3.6 2.2 3.3 98 0.1 CALM 0 0 0 0 1018.9 1019.2 0.0
31/03:30am 3.2 1.7 2.8 97 0.2 CALM 0 0 0 0 1019.0 1019.3 0.0
31/03:00am 3.2 1.7 2.8 97 0.2 CALM 0 0 0 0 1019.1 1019.4 0.0
31/02:30am 3.7 2.3 3.4 98 0.1 CALM 0 0 0 0 1019.2 1019.5 0.0
31/02:18am 4.0 2.6 3.6 97 0.2 CALM 0 0 0 0 1019.4 1019.7 0.0
31/02:00am 3.6 2.1 3.0 96 0.2 CALM 0 0 0 0 1019.6 1019.9 0.0
31/01:53am 4.0 2.6 3.4 96 0.2 CALM 0 0 0 0 1019.7 1020.0 0.0
31/01:34am 4.1 2.7 3.5 96 0.2 CALM 0 0 0 0 1019.9 1020.2 0.0
31/01:30am 4.3 2.9 3.7 96 0.3 CALM 0 0 0 0 1019.9 1020.2 0.0
31/01:12am 4.1 2.7 3.4 95 0.3 CALM 0 0 0 0 1020.0 1020.3 0.0
31/01:00am 4.8 3.5 4.1 95 0.3 CALM 0 0 0 0 1020.0 1020.3 0.0
31/12:30am 4.9 3.6 3.9 93 0.4 CALM 0 0 0 0 1020.1 1020.4 0.0
31/12:00am 5.8 4.7 4.9 94 0.4 CALM 0 0 0 0 1020.3 1020.6 0.0
 
Date/Time
EST
Temp
°C
App
Temp
°C
Dew
Point
Rel
Hum
%
Delta-T
°C
Wind Press
QNH
hPa
Press
MSL
hPa
Rain
since 9 am
mm
Dir
 
Spd
km/h
Gust
km/h
Spd
kts
Gust
kts
30/11:30pm 5.9 4.8 4.9 93 0.4 CALM 0 0 0 0 1020.4 1020.7 0.0
30/11:00pm 6.4 4.9 5.0 91 0.6 WSW 2 6 1 3 1020.5 1020.8 0.0
30/10:30pm 6.7 5.6 4.9 88 0.8 CALM 0 0 0 0 1020.6 1020.9 0.0
30/10:00pm 7.8 6.8 5.6 86 1.0 CALM 0 0 0 0 1020.7 1021.0 0.0
30/09:30pm 8.4 6.0 5.3 81 1.4 SE 7 11 4 6 1020.7 1021.0 0.0
30/09:00pm 9.7 7.7 6.4 80 1.5 SSE 6 9 3 5 1020.7 1021.0 0.0
30/08:30pm 10.4 9.4 5.8 73 2.1 CALM 0 0 0 0 1020.4 1020.7 0.0
30/08:00pm 10.2 8.0 5.2 71 2.3 NW 6 7 3 4 1020.2 1020.5 0.0
30/07:30pm 10.3 7.9 5.3 71 2.3 NW 7 9 4 5 1020.1 1020.4 0.0
30/07:00pm 10.6 7.7 4.9 68 2.6 NW 9 15 5 8 1019.9 1020.2 0.0
30/06:30pm 11.5 9.1 5.2 65 2.9 NNW 7 9 4 5 1019.7 1020.0 0.0
30/06:00pm 12.0 9.6 5.2 63 3.2 NW 7 9 4 5 1019.6 1019.9 0.0
30/05:30pm 12.9 9.4 5.3 60 3.6 WNW 13 15 7 8 1019.5 1019.8 0.0
30/05:00pm 13.7 10.2 5.3 57 4.0 W 13 19 7 10 1019.3 1019.6 0.0
30/04:30pm 14.4 11.2 5.2 54 4.4 W 11 17 6 9 1019.3 1019.6 0.0
30/04:00pm 14.9 11.4 5.4 53 4.5 W 13 19 7 10 1019.4 1019.7 0.0
30/03:30pm 15.1 12.3 5.3 52 4.7 W 9 17 5 9 1019.5 1019.8 0.0
30/03:00pm 15.0 12.1 4.4 49 4.9 WSW 9 15 5 8 1019.8 1020.1 0.0
30/02:30pm 14.9 12.0 4.9 51 4.7 WNW 9 17 5 9 1019.9 1020.2 0.0
30/02:00pm 14.5 10.8 4.2 50 4.8 WNW 13 19 7 10 1020.2 1020.5 0.0
30/01:30pm 14.4 11.0 4.1 50 4.8 WSW 11 15 6 8 1020.5 1020.8 0.0
30/01:00pm 13.9 11.2 3.9 51 4.6 SE 7 17 4 9 1020.9 1021.2 0.0
30/12:30pm 14.2 11.7 5.0 54 4.3 E 7 15 4 8 1021.4 1021.7 0.0
30/12:00pm 13.1 10.9 3.5 52 4.3 E 4 13 2 7 1021.8 1022.1 0.0
30/11:30am 12.5 9.7 2.9 52 4.3 S 7 11 4 6 1022.3 1022.5 0.0
30/11:00am 12.6 10.7 4.8 59 3.6 ESE 4 9 2 5 1022.6 1022.8 0.0
30/10:30am 10.9 8.4 5.0 67 2.7 SSE 7 11 4 6 1022.8 1023.0 0.0
30/10:00am 9.9 7.7 5.3 73 2.1 SE 6 9 3 5 1022.9 1023.1 0.0
30/09:30am 8.7 6.4 4.9 77 1.7 SE 6 9 3 5 1023.1 1023.3 0.0
30/09:00am 8.8 7.8 5.4 79 1.5 CALM 0 0 0 0 1023.0 1023.2 0.2
30/08:30am 6.6 5.3 4.3 85 1.0 CALM 0 0 0 0 1023.1 1023.3 0.2
30/08:00am 5.0 3.6 3.7 91 0.5 CALM 0 0 0 0 1023.0 1023.2 0.2
30/07:30am 3.6 2.2 3.5 99 0.0 CALM 0 0 0 0 1022.8 1023.0 0.2
30/07:00am 2.3 0.6 2.0 98 0.1 CALM 0 0 0 0 1022.5 1022.7 0.2
30/06:30am 1.7 -0.1 1.3 97 0.2 CALM 0 0 0 0 1022.3 1022.5 0.2
30/06:00am 1.8 0.0 1.2 96 0.2 CALM 0 0 0 0 1021.9 1022.2 0.2
30/05:30am 2.2 0.5 1.8 97 0.2 CALM 0 0 0 0 1021.9 1022.2 0.2
30/05:00am 3.0 1.4 2.7 98 0.1 CALM 0 0 0 0 1021.8 1022.1 0.2
30/04:30am 2.3 -0.1 2.0 98 0.1 S 4 6 2 3 1021.8 1022.1 0.2
30/04:00am 2.7 1.1 2.3 97 0.2 CALM 0 0 0 0 1021.7 1022.0 0.2
30/03:30am 3.3 1.8 3.0 98 0.1 CALM 0 0 0 0 1021.7 1022.0 0.2
30/03:00am 3.0 1.1 2.6 97 0.2 NNE 2 6 1 3 1022.0 1022.3 0.2
30/02:30am 3.2 1.6 2.6 96 0.2 CALM 0 0 0 0 1022.2 1022.4 0.2
30/02:00am 3.5 2.0 2.9 96 0.2 CALM 0 0 0 0 1022.4 1022.6 0.2
30/01:30am 3.7 1.0 2.5 92 0.5 ENE 6 6 3 3 1022.6 1022.8 0.2
30/01:00am 4.5 1.9 3.2 91 0.5 ENE 6 9 3 5 1022.7 1022.9 0.2
30/12:30am 5.4 3.6 3.7 89 0.7 ESE 2 6 1 3 1022.8 1023.0 0.2
30/12:00am 6.7 5.0 4.2 84 1.1 NNW 2 6 1 3 1022.7 1022.9 0.2
 
Date/Time
EST
Temp
°C
App
Temp
°C
Dew
Point
Rel
Hum
%
Delta-T
°C
Wind Press
QNH
hPa
Press
MSL
hPa
Rain
since 9 am
mm
Dir
 
Spd
km/h
Gust
km/h
Spd
kts
Gust
kts
29/11:30pm 6.7 4.1 4.2 84 1.1 WSW 7 11 4 6 1022.7 1022.9 0.2
29/11:00pm 7.2 3.9 4.3 82 1.3 WSW 11 15 6 8 1022.7 1022.9 0.2
29/10:30pm 6.8 3.4 4.1 83 1.2 W 11 13 6 7 1022.8 1023.0 0.2
29/10:00pm 7.0 4.0 4.1 82 1.3 NNW 9 11 5 6 1022.9 1023.1 0.2
29/09:30pm 7.6 3.9 4.2 79 1.5 W 13 17 7 9 1022.9 1023.1 0.2
29/09:00pm 7.1 3.7 4.1 81 1.3 W 11 13 6 7 1022.8 1023.0 0.2
29/08:30pm 8.1 5.1 4.1 76 1.8 WSW 9 11 5 6 1022.8 1023.0 0.2
29/08:00pm 8.6 4.1 4.2 74 1.9 W 17 22 9 12 1022.6 1022.8 0.2
29/07:30pm 9.2 4.7 4.4 72 2.1 WSW 17 22 9 12 1022.6 1022.8 0.2
29/07:00pm 9.4 4.9 4.2 70 2.3 W 17 24 9 13 1022.6 1022.8 0.2
29/06:30pm 9.8 5.3 4.4 69 2.4 W 17 22 9 12 1022.4 1022.6 0.2
29/06:00pm 10.4 6.2 3.7 63 3.0 W 15 19 8 10 1022.2 1022.4 0.2
29/05:30pm 11.5 6.5 3.5 58 3.6 W 19 24 10 13 1022.0 1022.3 0.2
29/05:00pm 12.4 7.4 3.6 55 3.9 WSW 19 30 10 16 1021.8 1022.1 0.2
29/04:30pm 12.8 7.8 3.5 53 4.2 W 19 28 10 15 1021.7 1022.0 0.2
29/04:00pm 13.0 7.9 2.8 50 4.5 WSW 19 26 10 14 1021.8 1022.1 0.2
29/03:30pm 13.3 8.0 2.8 49 4.7 W 20 28 11 15 1021.8 1022.1 0.2
29/03:00pm 13.6 8.7 2.2 46 5.0 WSW 17 28 9 15 1021.8 1022.1 0.2
29/02:30pm 13.3 8.3 1.3 44 5.2 WSW 17 24 9 13 1021.8 1022.1 0.2
29/02:00pm 13.0 8.9 2.5 49 4.6 WSW 13 22 7 12 1022.0 1022.3 0.2
29/01:30pm 12.4 7.0 1.4 47 4.7 W 19 26 10 14 1022.5 1022.7 0.2
29/01:00pm 12.3 7.1 2.5 51 4.3 W 19 30 10 16 1022.7 1022.9 0.0
29/12:30pm 11.6 8.5 3.6 58 3.6 W 9 17 5 9 1023.2 1023.4 0.0
29/12:00pm 10.9 7.5 4.1 63 3.0 WSW 11 19 6 10 1023.6 1023.8 0.0
29/11:30am 9.9 7.9 4.5 69 2.4 NW 4 7 2 4 1024.2 1024.5 0.0
29/11:16am 9.1 7.7 5.3 77 1.7 S 2 6 1 3 1024.5 1024.8 0.0
29/11:00am 8.8 6.2 4.4 74 1.9 E 7 11 4 6 1024.6 1024.9 0.0
29/10:56am 9.0 6.6 5.4 78 1.6 E 7 11 4 6 1024.6 1024.9 0.0
29/10:54am 9.2 6.8 5.4 77 1.7 ENE 7 11 4 6 1024.6 1024.9 0.0
29/10:38am 8.2 5.7 4.8 79 1.5 NE 7 11 4 6 1024.6 1024.9 0.0
29/10:30am 8.7 6.6 5.6 81 1.4 NE 6 11 3 6 1024.6 1024.9 0.0
29/10:00am 7.5 5.5 6.3 92 0.5 E 6 9 3 5 1024.7 1025.0 0.0
29/09:30am 5.6 3.3 5.5 99 0.0 SW 7 11 4 6 1024.8 1025.1 0.0
29/09:00am 5.1 2.8 5.0 99 0.0 W 6 7 3 4 1024.7 1025.0 0.0
29/08:57am 5.1 2.8 5.0 99 0.0 WSW 6 9 3 5 1024.7 1025.0 0.0
29/08:30am 4.6 2.2 4.5 99 0.0 W 6 9 3 5 1024.5 1024.8 0.0
29/08:00am 3.5 2.1 3.4 99 0.0 CALM 0 0 0 0 1024.3 1024.6 0.0
29/07:30am 2.7 0.0 2.6 99 0.0 N 6 9 3 5 1024.2 1024.5 0.0
29/07:00am 2.6 1.0 2.5 99 0.0 CALM 0 0 0 0 1023.9 1024.2 0.0
29/06:30am 2.5 0.5 2.4 99 0.0 ESE 2 7 1 4 1023.4 1023.6 0.0
29/06:00am 2.1 0.4 2.0 99 0.0 CALM 0 0 0 0 1023.3 1023.5 0.0
29/05:35am 1.3 -1.3 1.0 98 0.1 NNW 4 7 2 4 1023.0 1023.2 0.0
29/05:30am 1.5 -0.7 1.2 98 0.1 ESE 2 7 1 4 1023.0 1023.2 0.0
29/05:17am 1.5 -0.3 1.2 98 0.1 CALM 0 0 0 0 1022.9 1023.1 0.0
29/05:15am 1.6 -0.2 1.3 98 0.1 CALM 0 0 0 0 1022.9 1023.1 0.0
29/05:00am 2.1 0.4 2.0 99 0.0 CALM 0 0 0 0 1022.7 1022.9 0.0
29/04:52am 2.0 0.3 1.9 99 0.0 CALM 0 0 0 0 1022.7 1022.9 0.0
29/04:46am 2.1 0.4 2.0 99 0.0 CALM 0 0 0 0 1022.7 1022.9 0.0
29/04:30am 2.8 1.2 2.7 99 0.0 CALM 0 0 0 0 1022.7 1022.9 0.0
29/04:00am 3.3 1.8 3.2 99 0.0 CALM 0 0 0 0 1022.6 1022.8 0.0
29/03:35am 2.9 1.3 2.6 98 0.1 CALM 0 0 0 0 1022.5 1022.7 0.0
29/03:30am 3.4 1.9 3.1 98 0.1 CALM 0 0 0 0 1022.5 1022.7 0.0
29/03:00am 3.2 1.7 2.8 97 0.2 CALM 0 0 0 0 1022.8 1023.0 0.0
29/02:30am 4.2 2.9 3.9 98 0.1 CALM 0 0 0 0 1023.0 1023.2 0.0
29/02:00am 4.0 2.6 3.4 96 0.2 CALM 0 0 0 0 1023.2 1023.4 0.0
29/01:30am 4.6 2.0 4.2 97 0.2 NNE 7 9 4 5 1023.3 1023.5 0.0
29/01:00am 4.5 3.2 4.1 97 0.2 CALM 0 0 0 0 1023.4 1023.6 0.0
29/12:30am 4.7 3.4 4.0 95 0.3 CALM 0 0 0 0 1023.1 1023.3 0.0
29/12:00am 5.7 3.8 5.1 96 0.3 NNE 4 6 2 3 1023.1 1023.3 0.0
 
Date/Time
EST
Temp
°C
App
Temp
°C
Dew
Point
Rel
Hum
%
Delta-T
°C
Wind Press
QNH
hPa
Press
MSL
hPa
Rain
since 9 am
mm
Dir
 
Spd
km/h
Gust
km/h
Spd
kts
Gust
kts
28/11:30pm 5.5 4.0 4.8 95 0.3 ENE 2 6 1 3 1023.1 1023.3 0.0
28/11:00pm 6.3 4.5 5.6 95 0.3 SE 4 7 2 4 1023.2 1023.4 0.0
28/10:30pm 6.5 5.5 5.5 93 0.4 CALM 0 2 0 1 1023.2 1023.4 0.0
28/10:00pm 6.9 4.7 5.4 90 0.7 NE 6 9 3 5 1023.2 1023.4 0.0
28/09:30pm 7.5 5.4 5.6 88 0.9 ENE 6 9 3 5 1023.0 1023.2 0.0
28/09:00pm 8.4 7.3 5.3 81 1.4 CALM 0 7 0 4 1022.8 1023.0 0.0
28/08:30pm 9.4 7.2 5.4 76 1.8 WNW 6 9 3 5 1022.7 1022.9 0.0
28/08:00pm 10.2 7.2 5.8 74 2.0 NW 11 13 6 7 1022.6 1022.8 0.0
28/07:30pm 10.5 7.4 5.7 72 2.2 NW 11 15 6 8 1022.6 1022.8 0.0
28/07:00pm 10.4 7.3 5.6 72 2.2 NW 11 13 6 7 1022.4 1022.6 0.0

Other Formats:

Comma delimited format used in spreadsheet applications
http://www.bom.gov.au/fwo/IDV60801/IDV60801.95896.axf

JavaScript Object Notation format (JSON) in row-major order
http://www.bom.gov.au/fwo/IDV60801/IDV60801.95896.json